Time;durP1;ratioP1;P1;durP2;ratioP2;P2;SDS_P1;SDS_P2;PMS_P1;PMS_P2;Temp;Humidity;BMP_temperature;BMP_pressure;BME280_temperature;BME280_humidity;BME280_pressure;Samples;Min_cycle;Max_cycle;Signal;HPM_P1;HPM_P2
2021/03/30 00:00:17;;;;;;;1.53;1.33;;;6.70;89.60;;;;;;5073351;28;20531;-73
2021/03/30 00:02:43;;;;;;;1.95;1.60;;;6.70;89.70;;;;;;5073301;28;20251;-73
2021/03/30 00:05:09;;;;;;;1.80;1.70;;;6.60;88.90;;;;;;5073490;28;20256;-73
2021/03/30 00:07:35;;;;;;;1.50;1.33;;;6.50;88.60;;;;;;5073246;28;20224;-73
2021/03/30 00:10:03;;;;;;;3.37;1.73;;;6.30;90.00;;;;;;5073126;28;20170;-74
2021/03/30 00:12:28;;;;;;;1.95;1.85;;;6.30;90.00;;;;;;5073571;28;20654;-73
2021/03/30 00:14:54;;;;;;;4.87;1.80;;;6.50;89.00;;;;;;5073286;28;20178;-73
2021/03/30 00:17:19;;;;;;;3.63;1.57;;;6.40;89.60;;;;;;5073389;28;20170;-72
2021/03/30 00:19:45;;;;;;;1.60;1.50;;;6.50;90.00;;;;;;5073167;28;20529;-73
2021/03/30 00:22:11;;;;;;;2.20;1.60;;;6.50;89.40;;;;;;5072983;28;20258;-72
2021/03/30 00:24:36;;;;;;;1.90;1.80;;;6.40;90.00;;;;;;5073395;28;20174;-74
2021/03/30 00:27:02;;;;;;;2.30;1.20;;;6.40;90.10;;;;;;5073304;28;20205;-72
2021/03/30 00:29:28;;;;;;;1.57;1.47;;;6.30;90.50;;;;;;5073123;28;20253;-71
2021/03/30 00:31:53;;;;;;;2.07;1.87;;;6.30;90.50;;;;;;5073149;28;20396;-73
2021/03/30 00:34:19;;;;;;;2.03;1.90;;;6.40;90.80;;;;;;5073120;28;20176;-73
2021/03/30 00:36:45;;;;;;;1.60;1.50;;;6.30;90.90;;;;;;5073248;28;20178;-72
2021/03/30 00:39:10;;;;;;;1.43;1.10;;;6.20;90.90;;;;;;5072869;28;20170;-74
2021/03/30 00:41:42;;;;;;;1.30;1.20;;;6.30;90.40;;;;;;5073456;28;20631;-73
2021/03/30 00:44:12;;;;;;;1.48;1.38;;;6.30;90.30;;;;;;5072956;28;20303;-73
2021/03/30 00:46:43;;;;;;;1.38;1.27;;;6.30;90.90;;;;;;5072994;28;20556;-73
2021/03/30 00:49:08;;;;;;;2.22;1.83;;;6.10;90.90;;;;;;5072987;28;20162;-73
2021/03/30 00:51:34;;;;;;;1.33;1.20;;;6.20;91.00;;;;;;5072840;28;20182;-74
2021/03/30 00:54:00;;;;;;;2.37;1.97;;;6.00;91.50;;;;;;5072865;28;20185;-73
2021/03/30 00:56:26;;;;;;;2.20;1.90;;;6.10;91.00;;;;;;5073099;28;20409;-73
2021/03/30 00:58:55;;;;;;;2.45;1.75;;;6.30;90.50;;;;;;5072897;28;20169;-71
2021/03/30 01:01:21;;;;;;;1.55;1.45;;;6.30;90.30;;;;;;5072979;28;20170;-71
2021/03/30 01:03:47;;;;;;;1.50;1.27;;;6.40;90.00;;;;;;5072932;28;20712;-72
2021/03/30 01:06:12;;;;;;;1.97;1.83;;;6.20;90.30;;;;;;5072705;28;20239;-72
2021/03/30 01:08:47;;;;;;;2.10;1.90;;;6.40;90.80;;;;;;5072750;28;20395;-73
2021/03/30 01:11:41;;;;;;;1.83;1.60;;;6.30;90.80;;;;;;5072976;28;20173;-73
2021/03/30 01:14:07;;;;;;;1.48;1.38;;;6.20;90.80;;;;;;5072671;28;20536;-73
2021/03/30 01:16:57;;;;;;;3.10;1.67;;;6.30;90.60;;;;;;5072845;28;20196;-74
2021/03/30 01:19:43;;;;;;;5.45;1.45;;;6.20;90.20;;;;;;5072420;28;20185;-71
2021/03/30 01:22:20;;;;;;;2.10;1.35;;;6.30;90.10;;;;;;5072571;28;20586;-73
2021/03/30 01:24:50;;;;;;;2.95;2.28;;;6.40;89.90;;;;;;5074141;28;20165;-74
2021/03/30 01:27:22;;;;;;;1.63;1.50;;;6.40;90.40;;;;;;5076377;28;20198;-71
2021/03/30 01:29:50;;;;;;;1.90;1.20;;;6.30;90.70;;;;;;5076060;28;20252;-73
2021/03/30 01:32:29;;;;;;;4.47;1.60;;;6.20;90.70;;;;;;5076120;28;20235;-73
2021/03/30 01:34:57;;;;;;;2.20;2.00;;;6.30;90.60;;;;;;5076125;28;20227;-73
2021/03/30 01:37:25;;;;;;;4.05;1.35;;;6.30;90.70;;;;;;5076155;28;20178;-72
2021/03/30 01:39:55;;;;;;;2.40;1.55;;;6.30;90.70;;;;;;5075999;28;20558;-73
2021/03/30 01:42:25;;;;;;;1.85;1.58;;;6.20;90.80;;;;;;5075954;28;20238;-73
2021/03/30 01:44:53;;;;;;;1.90;1.73;;;6.10;91.20;;;;;;5075892;28;20172;-73
2021/03/30 01:47:20;;;;;;;2.35;1.23;;;6.20;91.20;;;;;;5076024;28;20204;-71
2021/03/30 01:49:46;;;;;;;1.95;1.65;;;6.00;91.30;;;;;;5075685;28;20561;-72
2021/03/30 01:52:15;;;;;;;1.97;1.77;;;5.90;91.80;;;;;;5075872;28;20181;-71
2021/03/30 01:54:42;;;;;;;2.42;1.58;;;5.90;91.60;;;;;;5075876;28;20271;-73
2021/03/30 01:57:08;;;;;;;4.88;1.35;;;6.10;91.50;;;;;;5075780;28;20182;-73
2021/03/30 01:59:35;;;;;;;2.90;1.80;;;6.20;91.20;;;;;;5075566;28;20662;-73
2021/03/30 02:02:02;;;;;;;3.45;2.03;;;6.20;91.20;;;;;;5075701;28;20399;-73
2021/03/30 02:04:29;;;;;;;1.48;1.30;;;6.10;91.20;;;;;;5075472;28;20209;-73
2021/03/30 02:06:56;;;;;;;2.38;2.10;;;6.00;91.50;;;;;;5075607;28;20288;-72
2021/03/30 02:09:28;;;;;;;2.60;1.88;;;6.00;91.40;;;;;;5075403;28;20178;-73
2021/03/30 02:11:56;;;;;;;2.65;1.75;;;5.80;91.70;;;;;;5074224;28;20593;-72
2021/03/30 02:14:22;;;;;;;2.53;2.35;;;5.80;91.40;;;;;;5075405;28;20257;-73
2021/03/30 02:16:56;;;;;;;1.60;1.50;;;5.90;91.30;;;;;;5075389;28;20166;-71
2021/03/30 02:19:50;;;;;;;2.80;1.80;;;5.80;91.50;;;;;;5075029;28;20182;-72
2021/03/30 02:22:30;;;;;;;2.72;1.95;;;5.80;91.90;;;;;;5072605;28;20304;-72
2021/03/30 02:24:58;;;;;;;4.03;1.80;;;5.80;92.20;;;;;;5075275;28;20162;-72
2021/03/30 02:27:26;;;;;;;2.42;2.22;;;5.80;91.90;;;;;;5074964;28;20251;-72
2021/03/30 02:29:54;;;;;;;1.52;1.40;;;5.80;91.70;;;;;;5074938;28;20651;-74
2021/03/30 02:32:23;;;;;;;3.38;1.70;;;5.80;91.60;;;;;;5075151;28;20229;-72
2021/03/30 02:34:51;;;;;;;2.00;1.80;;;5.80;91.60;;;;;;5074901;28;20161;-71
2021/03/30 02:37:19;;;;;;;2.05;1.60;;;5.90;91.80;;;;;;5074094;28;20264;-73
2021/03/30 02:39:46;;;;;;;2.35;1.58;;;6.00;92.00;;;;;;5074783;28;20607;-72
2021/03/30 02:42:13;;;;;;;3.88;2.00;;;5.90;91.80;;;;;;5074690;28;20580;-72
2021/03/30 02:44:40;;;;;;;3.00;1.70;;;5.70;91.80;;;;;;5074947;28;20177;-71
2021/03/30 02:47:07;;;;;;;1.55;1.45;;;5.80;91.70;;;;;;5074685;28;20212;-73
2021/03/30 02:49:34;;;;;;;1.60;1.45;;;5.90;91.60;;;;;;5074560;28;20166;-73
2021/03/30 02:52:00;;;;;;;3.47;1.75;;;5.90;91.50;;;;;;5074700;28;20504;-74
2021/03/30 02:54:27;;;;;;;2.22;2.03;;;6.00;91.00;;;;;;5074477;28;20252;-73
2021/03/30 02:56:57;;;;;;;1.77;1.60;;;6.00;91.30;;;;;;5075000;28;20271;-74
2021/03/30 02:59:24;;;;;;;2.63;1.60;;;6.00;91.60;;;;;;5074335;28;20215;-74
2021/03/30 03:01:51;;;;;;;1.70;1.60;;;6.00;91.80;;;;;;5074393;28;20169;-73
2021/03/30 03:04:18;;;;;;;2.95;1.60;;;6.00;91.60;;;;;;5074455;28;20166;-71
2021/03/30 03:06:44;;;;;;;2.83;2.17;;;6.10;92.10;;;;;;5074365;28;20258;-71
2021/03/30 03:09:11;;;;;;;2.40;1.75;;;6.00;92.00;;;;;;5073004;28;20192;-72
2021/03/30 03:11:42;;;;;;;2.00;1.60;;;5.90;92.10;;;;;;5074219;28;20259;-74
2021/03/30 03:14:10;;;;;;;2.05;1.85;;;5.60;92.50;;;;;;5074132;28;20181;-72
2021/03/30 03:16:38;;;;;;;3.20;1.67;;;5.50;93.20;;;;;;5074211;28;20177;-73
2021/03/30 03:19:07;;;;;;;4.40;1.55;;;5.40;93.60;;;;;;5073908;28;20165;-72
2021/03/30 03:21:33;;;;;;;7.93;2.30;;;5.50;93.60;;;;;;5074007;28;20191;-72
2021/03/30 03:23:59;;;;;;;2.38;2.17;;;5.50;93.80;;;;;;5073940;28;20576;-72
2021/03/30 03:26:25;;;;;;;5.38;1.88;;;5.60;93.70;;;;;;5073879;28;20219;-72
2021/03/30 03:28:50;;;;;;;4.33;2.13;;;5.50;93.80;;;;;;5074044;28;20181;-73
2021/03/30 03:31:16;;;;;;;3.23;2.13;;;5.60;93.90;;;;;;5073977;28;20171;-71
2021/03/30 03:33:42;;;;;;;3.90;2.43;;;5.70;93.60;;;;;;5073785;28;20204;-73
2021/03/30 03:36:13;;;;;;;2.10;1.67;;;5.80;93.20;;;;;;5073919;28;20213;-72
2021/03/30 03:38:43;;;;;;;2.22;2.03;;;5.80;93.10;;;;;;5073694;28;20231;-72
2021/03/30 03:41:14;;;;;;;2.88;1.80;;;5.90;93.30;;;;;;5074065;28;20162;-71
2021/03/30 03:43:40;;;;;;;3.58;2.30;;;6.00;93.40;;;;;;5073765;28;20192;-72
2021/03/30 03:46:06;;;;;;;2.23;2.10;;;5.90;93.10;;;;;;5074140;28;20515;-71
2021/03/30 03:48:32;;;;;;;1.90;1.80;;;5.90;93.10;;;;;;5073414;28;20392;-74
2021/03/30 03:51:02;;;;;;;4.20;2.37;;;5.80;93.20;;;;;;5073394;28;20400;-71
2021/03/30 03:53:30;;;;;;;4.03;2.40;;;5.90;93.20;;;;;;5073375;28;20604;-71
2021/03/30 03:55:58;;;;;;;4.30;2.15;;;6.00;92.90;;;;;;5073690;28;20170;-71
2021/03/30 03:58:29;;;;;;;3.92;1.92;;;6.00;92.90;;;;;;5073614;28;20162;-71
2021/03/30 04:00:55;;;;;;;2.60;2.47;;;6.00;93.20;;;;;;5073467;28;20192;-72
2021/03/30 04:03:32;;;;;;;2.30;1.83;;;6.10;92.90;;;;;;5073349;28;20182;-72
2021/03/30 04:06:16;;;;;;;2.10;2.00;;;6.10;93.10;;;;;;5073746;28;20191;-73
2021/03/30 04:08:47;;;;;;;3.08;2.20;;;6.00;93.20;;;;;;5073408;28;20625;-72
2021/03/30 04:11:14;;;;;;;5.35;2.33;;;6.00;93.50;;;;;;5073544;28;20500;-73
2021/03/30 04:13:40;;;;;;;2.25;1.92;;;5.90;93.70;;;;;;5073247;28;20185;-72
2021/03/30 04:16:06;;;;;;;4.40;1.63;;;5.90;93.80;;;;;;5073262;28;20210;-72
2021/03/30 04:18:34;;;;;;;2.23;2.03;;;5.90;93.60;;;;;;5072067;28;20185;-73
2021/03/30 04:21:02;;;;;;;2.55;2.15;;;6.00;93.40;;;;;;5071749;28;20404;-73
2021/03/30 04:23:28;;;;;;;7.50;2.88;;;6.10;93.50;;;;;;5073130;28;20545;-72
2021/03/30 04:25:54;;;;;;;2.28;2.03;;;6.10;93.90;;;;;;5073357;28;20323;-72
2021/03/30 04:28:19;;;;;;;3.33;2.50;;;6.10;94.00;;;;;;5073517;28;20213;-73
2021/03/30 04:30:45;;;;;;;3.80;2.37;;;6.10;93.90;;;;;;5072980;28;20180;-73
2021/03/30 04:33:11;;;;;;;4.67;2.57;;;6.10;93.90;;;;;;5073289;28;20189;-72
2021/03/30 04:35:37;;;;;;;2.75;2.00;;;6.00;93.70;;;;;;5073294;28;20181;-73
2021/03/30 04:38:05;;;;;;;3.33;2.10;;;6.00;93.60;;;;;;5073261;28;20170;-73
2021/03/30 04:40:31;;;;;;;3.88;2.22;;;6.00;93.90;;;;;;5073347;28;20174;-72
2021/03/30 04:42:56;;;;;;;3.23;2.20;;;5.90;93.80;;;;;;5072960;28;20199;-72
2021/03/30 04:45:22;;;;;;;2.07;1.83;;;5.80;94.20;;;;;;5073232;28;20208;-73
2021/03/30 04:47:48;;;;;;;3.33;2.07;;;5.80;94.30;;;;;;5073183;28;20556;-71
2021/03/30 04:50:14;;;;;;;2.90;2.30;;;6.00;94.10;;;;;;5072775;28;20724;-72
2021/03/30 04:52:39;;;;;;;2.95;2.60;;;6.00;94.00;;;;;;5073059;28;20240;-73
2021/03/30 04:55:06;;;;;;;4.00;2.07;;;6.00;94.00;;;;;;5072874;28;20178;-71
2021/03/30 04:57:32;;;;;;;2.35;1.65;;;5.90;94.20;;;;;;5072909;28;20527;-71
2021/03/30 04:59:57;;;;;;;2.17;1.80;;;5.80;94.40;;;;;;5075105;28;20173;-73
2021/03/30 05:02:23;;;;;;;4.00;2.83;;;5.90;94.20;;;;;;5076605;28;20194;-73
2021/03/30 05:04:49;;;;;;;2.33;2.13;;;5.70;94.40;;;;;;5076630;28;20227;-72
2021/03/30 05:07:15;;;;;;;2.13;1.92;;;5.90;94.40;;;;;;5076458;28;20201;-71
2021/03/30 05:09:41;;;;;;;3.40;2.13;;;6.00;93.80;;;;;;5076403;28;20227;-72
2021/03/30 05:12:07;;;;;;;1.70;1.53;;;6.00;93.50;;;;;;5076430;28;20185;-73
2021/03/30 05:14:33;;;;;;;2.15;2.00;;;6.00;93.60;;;;;;5076478;28;20631;-73
2021/03/30 05:16:58;;;;;;;2.90;1.43;;;6.00;93.70;;;;;;5076488;28;20186;-72
2021/03/30 05:19:24;;;;;;;2.30;2.13;;;6.00;93.70;;;;;;5076355;28;20177;-73
2021/03/30 05:21:50;;;;;;;3.67;1.93;;;6.00;93.60;;;;;;5076157;28;20185;-71
2021/03/30 05:24:16;;;;;;;3.40;2.63;;;6.10;93.60;;;;;;5076432;28;20195;-73
2021/03/30 05:26:42;;;;;;;5.80;1.80;;;6.10;93.70;;;;;;5076131;28;20493;-72
2021/03/30 05:29:08;;;;;;;2.10;1.90;;;6.20;93.60;;;;;;5075981;28;20441;-72
2021/03/30 05:31:34;;;;;;;1.77;1.67;;;6.10;93.80;;;;;;5076200;28;20247;-73
2021/03/30 05:33:59;;;;;;;1.80;1.70;;;6.30;93.20;;;;;;5076011;28;20193;-73
2021/03/30 05:36:25;;;;;;;2.90;2.00;;;6.30;93.00;;;;;;5076241;28;20177;-73
2021/03/30 05:38:51;;;;;;;2.90;2.07;;;6.30;93.10;;;;;;5074626;28;20174;-72
2021/03/30 05:41:17;;;;;;;1.83;1.53;;;6.30;93.20;;;;;;5076132;28;20219;-72
2021/03/30 05:43:43;;;;;;;1.77;1.63;;;6.00;93.50;;;;;;5075869;28;20189;-73
2021/03/30 05:46:09;;;;;;;6.10;2.23;;;6.30;93.40;;;;;;5075842;28;20528;-71
2021/03/30 05:48:35;;;;;;;1.60;1.50;;;6.40;93.00;;;;;;5075922;28;20411;-73
2021/03/30 05:51:01;;;;;;;1.30;1.20;;;6.40;92.80;;;;;;5075602;28;20241;-73
2021/03/30 05:53:27;;;;;;;1.53;1.43;;;6.40;92.90;;;;;;5075511;28;20189;-73
2021/03/30 05:55:59;;;;;;;2.67;1.50;;;6.50;92.90;;;;;;5076164;28;20527;-73
2021/03/30 05:58:30;;;;;;;3.30;1.65;;;6.70;92.60;;;;;;5075706;28;20173;-73
2021/03/30 06:00:58;;;;;;;3.90;1.73;;;6.70;92.30;;;;;;5075514;28;20177;-73
2021/03/30 06:03:27;;;;;;;4.70;2.97;;;6.80;92.40;;;;;;5075467;28;20687;-73
2021/03/30 06:05:55;;;;;;;1.50;1.20;;;6.70;92.80;;;;;;5075558;28;20521;-73
2021/03/30 06:08:22;;;;;;;4.88;1.90;;;6.80;92.70;;;;;;5075389;28;20210;-73
2021/03/30 06:10:50;;;;;;;3.42;1.50;;;7.00;92.40;;;;;;5075039;28;20170;-72
2021/03/30 06:13:47;;;;;;;5.85;2.10;;;7.00;92.20;;;;;;5075285;28;20186;-73
2021/03/30 06:16:34;;;;;;;2.60;1.52;;;7.00;92.00;;;;;;5075568;28;20171;-72
2021/03/30 06:19:12;;;;;;;2.50;2.15;;;7.20;91.80;;;;;;5075100;28;20167;-74
2021/03/30 06:21:42;;;;;;;1.30;1.30;;;7.30;91.70;;;;;;5075106;28;20284;-73
2021/03/30 06:24:23;;;;;;;2.22;1.40;;;7.40;91.70;;;;;;5075108;28;20191;-72
2021/03/30 06:26:56;;;;;;;1.63;1.50;;;7.50;91.30;;;;;;5075152;28;20198;-72
2021/03/30 06:29:24;;;;;;;3.78;2.90;;;7.80;91.30;;;;;;5074913;28;20239;-72
2021/03/30 06:31:50;;;;;;;2.70;2.22;;;7.90;91.60;;;;;;5073700;28;20181;-72
2021/03/30 06:34:24;;;;;;;1.67;1.58;;;8.30;91.80;;;;;;5074963;28;20184;-72
2021/03/30 06:36:50;;;;;;;3.30;1.67;;;9.00;91.60;;;;;;5075109;28;20175;-72
2021/03/30 06:39:16;;;;;;;3.10;2.30;;;9.80;90.20;;;;;;5074779;28;20630;-72
2021/03/30 06:47:14;;;;;;;3.60;2.07;;;13.40;74.00;;;;;;5075012;28;20443;-73
2021/03/30 06:50:02;;;;;;;2.53;2.13;;;14.70;67.20;;;;;;5074578;28;20401;-73
2021/03/30 06:52:34;;;;;;;3.13;1.90;;;16.00;62.30;;;;;;5074632;28;20510;-72
2021/03/30 06:55:07;;;;;;;6.00;2.37;;;16.90;57.40;;;;;;5074558;28;20808;-73
2021/03/30 06:57:45;;;;;;;2.80;2.17;;;17.60;56.00;;;;;;5073314;28;20418;-73
2021/03/30 07:00:25;;;;;;;1.70;1.60;;;18.90;52.60;;;;;;5074219;28;20411;-73
2021/03/30 07:02:56;;;;;;;1.67;1.57;;;19.90;47.40;;;;;;5074756;28;20458;-73
2021/03/30 07:05:43;;;;;;;2.33;1.47;;;20.30;44.90;;;;;;5074571;28;20403;-72
2021/03/30 07:08:10;;;;;;;1.80;1.50;;;21.70;42.50;;;;;;5074463;28;20839;-72
2021/03/30 07:10:46;;;;;;;6.63;2.20;;;23.80;40.10;;;;;;5073955;28;20418;-72
2021/03/30 07:13:13;;;;;;;1.87;1.77;;;25.70;35.50;;;;;;5074421;28;20979;-71
2021/03/30 07:15:39;;;;;;;2.07;1.90;;;27.00;33.50;;;;;;5074181;28;20490;-71
2021/03/30 07:18:19;;;;;;;3.33;2.63;;;28.30;30.60;;;;;;5074386;28;20407;-72
2021/03/30 07:21:13;;;;;;;1.67;1.57;;;29.40;30.10;;;;;;5074109;28;20703;-70
2021/03/30 07:23:45;;;;;;;5.03;2.03;;;30.60;27.80;;;;;;5073697;28;20424;-72
2021/03/30 07:26:18;;;;;;;2.53;1.90;;;31.30;26.90;;;;;;5072657;28;20916;-70
2021/03/30 07:29:02;;;;;;;3.60;1.40;;;31.90;26.10;;;;;;5073927;28;20436;-72
2021/03/30 07:31:32;;;;;;;2.70;2.50;;;32.40;24.70;;;;;;5074018;28;20893;-72
2021/03/30 07:34:09;;;;;;;1.80;1.63;;;32.10;25.20;;;;;;5073660;28;20427;-72
2021/03/30 07:36:51;;;;;;;3.03;1.67;;;31.60;25.40;;;;;;5073811;28;20449;-70
2021/03/30 07:39:20;;;;;;;3.20;2.90;;;30.80;25.10;;;;;;5073807;28;20404;-71
2021/03/30 07:41:46;;;;;;;2.23;2.03;;;30.50;25.60;;;;;;5073795;28;20403;-71
2021/03/30 07:44:13;;;;;;;3.47;2.27;;;29.60;26.80;;;;;;5073578;28;20424;-71
2021/03/30 07:46:39;;;;;;;3.77;2.37;;;29.40;27.00;;;;;;5073601;28;20462;-72
2021/03/30 07:49:05;;;;;;;3.30;1.90;;;28.80;26.70;;;;;;5073485;28;20408;-70
2021/03/30 07:51:43;;;;;;;3.40;2.27;;;29.60;25.80;;;;;;5073626;28;20546;-71
2021/03/30 07:54:11;;;;;;;2.47;2.27;;;29.60;26.20;;;;;;5073461;28;20423;-73
2021/03/30 07:56:47;;;;;;;2.47;1.80;;;30.30;26.00;;;;;;5073225;28;20481;-71
2021/03/30 07:59:41;;;;;;;2.80;1.40;;;31.10;25.10;;;;;;5073274;28;20399;-71
2021/03/30 08:02:09;;;;;;;3.63;1.47;;;32.10;24.70;;;;;;5073074;28;20399;-72
2021/03/30 08:04:34;;;;;;;2.47;2.27;;;31.90;21.20;;;;;;5073421;28;20807;-72
2021/03/30 08:07:00;;;;;;;3.57;1.43;;;31.90;24.00;;;;;;5073414;28;20489;-72
2021/03/30 08:09:26;;;;;;;2.07;1.50;;;30.80;23.70;;;;;;5073208;28;20165;-72
2021/03/30 08:11:59;;;;;;;1.47;1.20;;;31.30;22.80;;;;;;5073338;28;20257;-72
2021/03/30 08:14:33;;;;;;;1.93;1.70;;;32.30;23.00;;;;;;5073439;28;20170;-73
2021/03/30 08:17:01;;;;;;;2.70;1.40;;;33.20;22.70;;;;;;5073537;28;20456;-71
2021/03/30 08:19:27;;;;;;;1.73;1.53;;;32.90;21.00;;;;;;5073181;28;20403;-71
2021/03/30 08:22:00;;;;;;;2.60;1.30;;;33.30;20.20;;;;;;5073127;28;20436;-71
2021/03/30 08:24:44;;;;;;;1.80;1.10;;;33.90;20.80;;;;;;5073219;28;20423;-72
2021/03/30 08:27:31;;;;;;;5.90;1.10;;;34.60;18.40;;;;;;5073249;28;20438;-71
2021/03/30 08:30:13;;;;;;;1.87;1.10;;;34.80;18.20;;;;;;5071990;28;20415;-72
2021/03/30 08:32:44;;;;;;;1.63;1.00;;;34.20;18.40;;;;;;5073367;28;20408;-73
2021/03/30 08:35:12;;;;;;;1.20;1.10;;;32.80;18.30;;;;;;5075868;28;20390;-72
2021/03/30 08:37:40;;;;;;;3.07;1.30;;;32.10;18.80;;;;;;5077337;28;20395;-72
2021/03/30 08:40:35;;;;;;;2.70;1.40;;;31.90;19.10;;;;;;5077072;28;20411;-72
2021/03/30 08:43:22;;;;;;;1.63;1.00;;;32.60;18.90;;;;;;5076900;28;21025;-71
2021/03/30 08:46:08;;;;;;;0.90;0.80;;;32.50;18.20;;;;;;5077287;28;20400;-71
2021/03/30 08:48:37;;;;;;;1.67;1.30;;;31.30;19.00;;;;;;5076899;28;20909;-72
2021/03/30 08:51:12;;;;;;;2.50;1.00;;;31.50;19.20;;;;;;5076820;28;20387;-71
2021/03/30 08:53:38;;;;;;;1.63;1.00;;;31.90;18.80;;;;;;5077053;28;20444;-71
2021/03/30 08:56:09;;;;;;;4.70;0.80;;;31.60;19.50;;;;;;5076941;28;20384;-72
2021/03/30 08:58:57;;;;;;;1.03;0.90;;;32.40;19.00;;;;;;5077127;28;20165;-73
2021/03/30 09:01:24;;;;;;;1.20;1.10;;;33.50;18.90;;;;;;5076669;28;20400;-72
2021/03/30 09:03:53;;;;;;;1.47;1.10;;;33.40;18.50;;;;;;5076606;28;20419;-72
2021/03/30 09:06:42;;;;;;;1.70;1.13;;;34.00;18.30;;;;;;5076909;28;20384;-71
2021/03/30 09:09:22;;;;;;;2.07;1.03;;;34.00;17.90;;;;;;5076424;28;20408;-71
2021/03/30 09:11:49;;;;;;;1.80;1.27;;;34.10;17.90;;;;;;5076493;28;20411;-71
2021/03/30 09:14:19;;;;;;;1.30;0.90;;;33.70;17.90;;;;;;5076433;28;20490;-71
2021/03/30 09:16:47;;;;;;;1.27;0.90;;;33.70;17.90;;;;;;5076678;28;20404;-72
2021/03/30 09:19:34;;;;;;;3.03;1.30;;;33.80;17.80;;;;;;5076221;28;20897;-73
2021/03/30 09:22:05;;;;;;;2.20;1.20;;;32.90;18.60;;;;;;5076260;28;20433;-71
2021/03/30 09:27:28;;;;;;;1.30;1.20;;;32.00;19.40;;;;;;5076443;28;20450;-72
2021/03/30 09:29:55;;;;;;;2.43;0.90;;;33.30;18.50;;;;;;5074807;28;20948;-71
2021/03/30 09:32:23;;;;;;;3.40;1.17;;;33.50;17.90;;;;;;5076300;28;20419;-71
2021/03/30 09:34:49;;;;;;;4.43;1.80;;;32.00;18.50;;;;;;5076144;28;20404;-72
2021/03/30 09:37:15;;;;;;;1.47;0.70;;;31.00;19.40;;;;;;5075998;28;20400;-72
2021/03/30 09:39:42;;;;;;;1.90;1.17;;;30.90;19.80;;;;;;5075914;28;20412;-71
2021/03/30 09:42:08;;;;;;;2.50;1.13;;;31.90;18.60;;;;;;5076074;28;20435;-71
2021/03/30 09:44:45;;;;;;;3.70;1.13;;;33.00;18.90;;;;;;5075559;28;20415;-72
2021/03/30 09:47:12;;;;;;;1.30;0.97;;;34.50;18.30;;;;;;5075683;28;20450;-72
2021/03/30 09:49:40;;;;;;;1.23;0.83;;;33.90;17.80;;;;;;5075756;28;20400;-71
2021/03/30 09:52:06;;;;;;;1.23;1.00;;;34.00;18.10;;;;;;5075385;28;20916;-71
2021/03/30 09:54:43;;;;;;;1.43;1.13;;;34.70;18.00;;;;;;5075813;28;20404;-72
2021/03/30 09:57:15;;;;;;;1.40;1.30;;;36.00;18.10;;;;;;5075449;28;20214;-72
2021/03/30 09:59:49;;;;;;;1.63;1.53;;;35.80;17.80;;;;;;5075444;28;20425;-70
2021/03/30 10:02:17;;;;;;;0.83;0.60;;;35.30;16.80;;;;;;5075516;28;20427;-71
2021/03/30 10:04:43;;;;;;;2.30;1.10;;;34.70;17.40;;;;;;5075749;28;20897;-73
2021/03/30 10:07:19;;;;;;;4.13;1.63;;;34.40;17.20;;;;;;5075311;28;20536;-71
2021/03/30 10:10:06;;;;;;;1.73;1.20;;;33.90;17.40;;;;;;5075318;28;20161;-71
2021/03/30 10:12:36;;;;;;;1.73;1.10;;;32.80;18.40;;;;;;5075198;28;20415;-72
2021/03/30 10:15:04;;;;;;;4.23;1.50;;;32.20;18.80;;;;;;5075397;28;20774;-70
2021/03/30 10:17:31;;;;;;;1.50;0.97;;;32.00;19.20;;;;;;5075329;28;20519;-71
2021/03/30 10:19:58;;;;;;;0.67;0.67;;;33.00;18.10;;;;;;5074794;28;20469;-73
2021/03/30 10:22:33;;;;;;;3.33;1.10;;;32.70;18.00;;;;;;5075010;28;20455;-70
2021/03/30 10:25:14;;;;;;;1.30;1.20;;;32.40;17.80;;;;;;5075037;28;20795;-73
2021/03/30 10:27:56;;;;;;;0.77;0.63;;;32.20;18.20;;;;;;5075201;28;20443;-71
2021/03/30 10:30:33;;;;;;;0.80;0.80;;;32.20;17.80;;;;;;5074681;28;20400;-72
2021/03/30 10:33:01;;;;;;;4.20;1.03;;;32.30;18.60;;;;;;5075149;28;20599;-73
2021/03/30 10:35:28;;;;;;;2.80;1.40;;;31.70;18.30;;;;;;5075144;28;20423;-72
2021/03/30 10:37:55;;;;;;;2.20;1.70;;;31.10;19.10;;;;;;5075163;28;20415;-71
2021/03/30 10:40:29;;;;;;;1.43;1.33;;;30.70;19.70;;;;;;5074991;28;20487;-71
2021/03/30 10:42:55;;;;;;;1.30;1.20;;;31.00;20.00;;;;;;5075174;28;20510;-72
2021/03/30 10:45:28;;;;;;;2.17;1.30;;;30.90;20.30;;;;;;5074859;28;20491;-71
2021/03/30 10:48:00;;;;;;;0.93;0.80;;;30.90;19.70;;;;;;5074954;28;20205;-72
2021/03/30 10:50:25;;;;;;;1.10;0.80;;;30.40;18.20;;;;;;5074871;28;20461;-71
2021/03/30 10:52:51;;;;;;;1.23;0.97;;;29.60;18.30;;;;;;5074784;28;20905;-72
2021/03/30 10:55:19;;;;;;;1.23;0.83;;;28.80;19.70;;;;;;5074707;28;20166;-70
2021/03/30 10:57:47;;;;;;;1.33;0.77;;;28.20;20.70;;;;;;5073893;28;20173;-72
2021/03/30 11:00:14;;;;;;;1.63;1.10;;;28.10;20.00;;;;;;5074533;28;20457;-73
2021/03/30 11:02:40;;;;;;;1.57;1.03;;;28.30;20.80;;;;;;5074442;28;20427;-71
2021/03/30 11:05:07;;;;;;;2.60;1.33;;;27.90;21.40;;;;;;5074301;28;20761;-71
2021/03/30 11:07:33;;;;;;;2.00;1.40;;;27.10;20.60;;;;;;5074239;28;20193;-72
2021/03/30 11:09:59;;;;;;;1.80;0.90;;;26.10;22.30;;;;;;5074097;28;20384;-71
2021/03/30 11:12:25;;;;;;;3.67;1.47;;;25.40;22.90;;;;;;5074299;28;20219;-70
2021/03/30 11:14:50;;;;;;;3.37;1.30;;;24.90;23.50;;;;;;5074308;28;20372;-71
2021/03/30 11:17:16;;;;;;;4.70;1.70;;;24.40;23.20;;;;;;5074161;28;20403;-71
2021/03/30 11:19:42;;;;;;;1.57;1.47;;;24.20;23.40;;;;;;5073848;28;20169;-73
2021/03/30 11:22:09;;;;;;;1.93;1.60;;;24.30;22.90;;;;;;5072535;28;20247;-71
2021/03/30 11:24:38;;;;;;;1.17;0.83;;;24.10;22.60;;;;;;5074087;28;20173;-71
2021/03/30 11:27:05;;;;;;;2.30;0.97;;;23.70;21.80;;;;;;5074545;28;20465;-72
2021/03/30 11:32:14;;;;;;;0.67;0.67;;;23.40;22.20;;;;;;5074045;28;20469;-71
2021/03/30 11:34:53;;;;;;;3.13;1.30;;;23.10;21.80;;;;;;5073938;28;20608;-73
2021/03/30 11:39:57;;;;;;;2.73;1.00;;;22.90;23.00;;;;;;5073617;28;20808;-71
2021/03/30 11:42:24;;;;;;;0.97;0.97;;;23.20;23.40;;;;;;5073794;28;20427;-72
2021/03/30 11:44:51;;;;;;;2.63;1.33;;;23.20;22.20;;;;;;5073784;28;20482;-72
2021/03/30 11:47:17;;;;;;;1.60;1.00;;;23.10;21.30;;;;;;5073690;28;20447;-71
2021/03/30 11:49:42;;;;;;;4.63;1.50;;;23.10;22.30;;;;;;5073511;28;20489;-71
2021/03/30 11:52:09;;;;;;;1.27;1.03;;;23.00;23.20;;;;;;5073383;28;20472;-71
2021/03/30 11:54:35;;;;;;;1.07;0.80;;;22.80;23.90;;;;;;5073699;28;20169;-72
2021/03/30 11:57:01;;;;;;;1.40;1.30;;;22.70;23.60;;;;;;5073566;28;20504;-71
2021/03/30 11:59:27;;;;;;;1.07;0.97;;;22.60;23.90;;;;;;5073295;28;20415;-70
2021/03/30 12:01:53;;;;;;;2.20;0.90;;;22.60;23.40;;;;;;5073593;28;20408;-70
2021/03/30 12:04:19;;;;;;;1.30;1.20;;;22.70;23.00;;;;;;5072025;28;20656;-73
2021/03/30 12:06:45;;;;;;;1.50;1.30;;;22.60;22.80;;;;;;5073256;28;20453;-72
2021/03/30 12:09:11;;;;;;;1.80;1.43;;;22.50;22.60;;;;;;5073373;28;20904;-70
2021/03/30 12:11:36;;;;;;;2.53;1.20;;;22.50;23.20;;;;;;5073524;28;20177;-72
2021/03/30 12:14:03;;;;;;;2.03;1.93;;;22.40;23.20;;;;;;5073250;28;20235;-72
2021/03/30 12:16:29;;;;;;;1.87;1.03;;;22.30;23.20;;;;;;5073478;28;20173;-70
2021/03/30 12:18:55;;;;;;;1.53;1.10;;;22.40;23.80;;;;;;5073158;28;20412;-72
2021/03/30 12:21:23;;;;;;;1.67;1.57;;;22.50;23.10;;;;;;5073111;28;20912;-71
2021/03/30 12:23:49;;;;;;;2.90;1.73;;;22.50;23.00;;;;;;5073400;28;20491;-70
2021/03/30 12:26:14;;;;;;;2.70;1.00;;;22.50;23.30;;;;;;5073185;28;20414;-72
2021/03/30 12:28:40;;;;;;;4.10;1.33;;;22.50;23.70;;;;;;5073083;28;20403;-71
2021/03/30 12:31:06;;;;;;;1.43;1.33;;;22.50;25.70;;;;;;5073293;28;20168;-73
2021/03/30 12:33:32;;;;;;;1.43;1.10;;;22.50;25.00;;;;;;5072685;28;20420;-72
2021/03/30 12:35:58;;;;;;;3.50;1.80;;;22.50;24.60;;;;;;5073101;28;20435;-72
2021/03/30 12:38:24;;;;;;;0.97;0.97;;;22.50;25.00;;;;;;5072983;28;20182;-71
2021/03/30 12:40:49;;;;;;;1.27;1.13;;;22.50;27.70;;;;;;5072989;28;20174;-71
2021/03/30 12:43:16;;;;;;;3.43;1.07;;;22.40;24.40;;;;;;5072821;28;20433;-72
2021/03/30 12:45:42;;;;;;;1.20;0.93;;;22.50;28.70;;;;;;5073207;28;20174;-70
2021/03/30 12:48:10;;;;;;;1.93;1.00;;;22.30;25.40;;;;;;5071847;28;20450;-71
2021/03/30 12:50:36;;;;;;;2.03;1.23;;;22.00;25.00;;;;;;5072815;28;20486;-71
2021/03/30 12:53:03;;;;;;;1.53;1.43;;;21.90;24.80;;;;;;5072833;28;20430;-72
2021/03/30 12:55:29;;;;;;;3.77;1.30;;;22.00;26.10;;;;;;5071643;28;20412;-72
2021/03/30 12:57:55;;;;;;;1.83;1.40;;;22.00;25.30;;;;;;5073031;28;20416;-72
2021/03/30 13:00:21;;;;;;;1.73;1.30;;;21.80;24.80;;;;;;5072740;28;20492;-72
2021/03/30 13:02:48;;;;;;;5.03;1.00;;;21.80;24.80;;;;;;5072981;28;20195;-71
2021/03/30 13:05:14;;;;;;;1.20;1.10;;;22.00;25.60;;;;;;5072984;28;20408;-71
2021/03/30 13:07:39;;;;;;;1.90;1.27;;;22.10;25.90;;;;;;5072958;28;20456;-71
2021/03/30 13:10:06;;;;;;;1.47;1.27;;;22.10;25.50;;;;;;5072660;28;20624;-72
2021/03/30 13:12:33;;;;;;;1.70;1.50;;;22.00;25.20;;;;;;5072961;28;20555;-72
2021/03/30 13:15:03;;;;;;;1.83;1.60;;;21.90;25.50;;;;;;5072705;28;20405;-72
2021/03/30 13:17:29;;;;;;;1.23;1.10;;;21.80;26.80;;;;;;5072587;28;20469;-71